Tiempo atmosférico en la estación meteorológica de Antigua, Las Palmas (252 m.)



Fecha
DESCASC
Temp. máxima en grados centígrados (hora)
DESCASC
Temp. mínima en grados centígrados (hora)
DESCASC
Temp. media en grados centígrados
DESCASC
Racha de viento máxima en m/sg (hora)
DESCASC
Velocidad máxima media en intervalos de 10 minutos(hora)
DESCASC
Precipitaciones diarias en mm
DESCASC
Precipitaciones de 00:00 a 06:00 en mm
DESCASC
Precipitaciones de 06:00 a 12:00 en mm
DESCASC
Precipitaciones de 12:00 a 18:00 en mm
DESCASC
Precipitaciones de 18:00 a 24:00 en mm
DESCASC
21-02-2019 23.1 (15:50) 12.1 (01:50) 17.6 9.17 (14:00) 6.11 (14:10) 0 0 0 0 0
20-02-2019 20 (13:00) 10.3 (01:20) 15.2 8.06 (14:20) 5.56 (15:00) 0 0 0 0 0
19-02-2019 18 (12:30) 10.4 (05:50) 14.2 12.22 (14:40) 8.61 (16:30) 0 0 0 0 0
18-02-2019 18 (13:20) 11.6 (23:59) 14.8 14.72 (16:30) 8.89 (14:50) 0 0 0 0 0
17-02-2019 20.7 (14:00) 11.1 (00:00) 15.9 11.94 (13:00) 7.22 (13:10) 0 0 0 0 0
16-02-2019 19.4 (16:00) 13.1 (00:00) 16.3 14.72 (13:00) 11.11 (13:00) 0 0 0 0 0
15-02-2019 20.4 (12:50) 12.1 (00:00) 16.3 15.28 (14:40) 11.11 (15:10) 0.4 0 0 0.4 0
14-02-2019 24.6 (15:40) 14.9 (00:00) 19.8 15.28 (14:30) 10.28 (14:40) 0 0 0 0 0
13-02-2019 27 (16:00) 11.3 (00:00) 19.2 8.89 (15:00) 6.11 (14:50) 0 0 0 0 0
12-02-2019 24.3 (16:00) 12.8 (00:00) 18.5 7.5 (13:10) 4.72 (12:50) 0 0 0 0 0
11-02-2019 24.8 (15:10) 15.1 (00:00) 19.9 6.67 (14:00) 4.72 (11:50) 0 0 0 0 0
10-02-2019 22.9 (16:20) 11 (00:00) 16.9 8.61 (12:10) 5.83 (12:40) 0 0 0 0 0
09-02-2019 21 (14:20) 10.4 (00:00) 15.7 6.94 (15:00) 4.17 (14:50) 0 0 0 0 0
08-02-2019 18.6 (15:00) 9.8 (00:00) 14.2 7.78 (11:20) 5 (11:50) 0 0 0 0 0
07-02-2019 18.9 (15:10) 12.6 (00:00) 15.8 10.83 (14:00) 5.28 (13:20) 0 0 0 0 0
06-02-2019 21.5 (15:20) 12.2 (00:00) 16.8 9.44 (13:10) 6.39 (13:10) 0 0 0 0 0
05-02-2019 21.2 (14:20) 9.2 (00:00) 15.2 8.89 (13:30) 6.11 (13:00) 0 0 0 0 0
04-02-2019 22.8 (16:00) 12.1 (00:00) 17.4 8.89 (15:20) 5.28 (14:10) 0 0 0 0 0
03-02-2019 17.5 (15:20) 12.8 (00:00) 15.2 13.06 (14:20) 9.17 (14:30) 0 0 0 0 0
02-02-2019 18.1 (14:10) 12.4 (00:00) 15.3 13.33 (14:30) 9.17 (16:30) 0.6 0.6 0 0 0
01-02-2019 -- (--) -- (--) -- -- (--) -- (--) -- 0 -- 0 1.2
31-01-2019 17.5 (12:30) 12.1 (00:00) 14.8 11.11 (12:50) 7.78 (15:00) 0.2 0 0 0.2 0
30-01-2019 18.4 (12:50) 12.3 (00:00) 15.3 13.33 (15:30) 8.89 (17:20) 0 0 0 0 0
29-01-2019 19.5 (13:20) 11.2 (00:00) 15.3 12.22 (14:00) 8.61 (13:50) 0 0 0 0 0
28-01-2019 19.1 (13:50) 11.2 (00:00) 15.2 13.06 (16:00) 9.17 (16:30) 0 0 0 0 0
27-01-2019 19.7 (13:50) 12.3 (00:00) 16 10.56 (17:50) 7.22 (17:30) 0 0 0 0 0
26-01-2019 19.8 (12:30) 13 (00:00) 16.4 6.94 (14:50) 5 (15:50) 0 0 0 0 0
25-01-2019 19.5 (15:00) 12.3 (00:00) 15.9 7.78 (13:40) 5.83 (01:40) 0 0 0 0 0
24-01-2019 18.4 (14:10) 11.7 (00:00) 15 11.39 (14:20) 8.33 (09:30) 0.8 0 0 0 0.8

Gráficas

Temp. máximas Temp. mínimas Temp. medias Precipitaciones Rachas de viento máximas Velocidades máximas media en intervalos de 10 minutos

Datos horarios

Fecha y hora oficial Temperatura (ºC) Velocidad del viento (km/h) Dirección del viento Racha (km/h) Dirección de racha Precipitación (mm) Presión (hPa) Tendencia (hPa) Humedad (%)
2019-02-22 23:00:00 16.9 2 Sur 10 Este 0 -- -- 42
2019-02-22 22:00:00 17.5 5 Noroeste 9 Oeste 0 -- -- 24
2019-02-22 21:00:00 18.3 8 Noroeste 10 Noroeste 0 -- -- 22
2019-02-22 20:00:00 19.5 6 Noroeste 10 Sudoeste 0 -- -- 21
2019-02-22 19:00:00 22.9 9 Sudoeste 22 Sur 0 -- -- 17
2019-02-22 18:00:00 25.2 18 Sur 30 Sur 0 -- -- 15
2019-02-22 17:00:00 25.9 23 Sur 35 Sur 0 -- -- 15
2019-02-22 16:00:00 25.9 27 Sur 40 Sur 0 -- -- 15
2019-02-22 15:00:00 25.9 28 Sur 41 Sudeste 0 -- -- 16
2019-02-22 14:00:00 26 25 Sur 43 Sudeste 0 -- -- 16
2019-02-22 13:00:00 25 29 Sudeste 42 Sur 0 -- -- 18
2019-02-22 12:00:00 24.3 28 Sudeste 42 Sudeste 0 -- -- 21
2019-02-22 11:00:00 22.9 28 Sur 42 Sur 0 -- -- 25
2019-02-22 10:00:00 20.9 20 Sur 30 Sur 0 -- -- 31
2019-02-22 09:00:00 17.5 10 Sur 19 Sudeste 0 -- -- 46
2019-02-22 08:00:00 14.5 6 Sur 9 Sur 0 -- -- 67
2019-02-22 07:00:00 14.8 2 Sur 8 Sudeste 0 -- -- 72
2019-02-22 06:00:00 15.5 4 Sur 12 Sur 0 -- -- 68
2019-02-22 05:00:00 14.4 5 Oeste 13 Noroeste 0 -- -- 72
2019-02-22 04:00:00 13.7 5 Oeste 15 Sudoeste 0 -- -- 87
2019-02-22 03:00:00 13.8 5 Oeste 10 Oeste 0 -- -- 88
2019-02-22 02:00:00 14.7 4 Noroeste 11 Oeste 0 -- -- 80
2019-02-22 01:00:00 14.7 3 Sur 7 Sudoeste 0 -- -- 64
2019-02-22 00:00:00 14.2 3 Sudoeste 10 Este 0 -- -- 53
2019-02-21 23:00:00 13.2 6 Noroeste 10 Oeste 0 -- -- 54
2019-02-21 22:00:00 12.7 4 Noroeste 6 Oeste 0 -- -- 85
2019-02-21 21:00:00 14.9 2 Oeste 7 Este 0 -- -- 85
2019-02-21 20:00:00 16.6 4 Este 10 Este 0 -- -- 76
2019-02-21 19:00:00 19.4 0 Calma 9 Este 0 -- -- 47
2019-02-21 18:00:00 21 5 Este 19 Este 0 -- -- 44
2019-02-21 17:00:00 21.9 14 Este 29 Sudeste 0 -- -- 43
2019-02-21 16:00:00 22.9 20 Sudeste 31 Sudeste 0 -- -- 33
2019-02-21 15:00:00 22 15 Sudeste 30 Este 0 -- -- 40
2019-02-21 14:00:00 21.5 21 Este 33 Este 0 -- -- 47
2019-02-21 13:00:00 20.7 14 Sudeste 25 Este 0 -- -- 49
2019-02-21 12:00:00 19.6 15 Este 24 Sudeste 0 -- -- 57
2019-02-21 11:00:00 18.3 14 Este 22 Este 0 -- -- 61
2019-02-21 10:00:00 16.6 8 Sudeste 14 Sur 0 -- -- 75
2019-02-21 09:00:00 14.9 6 Sudeste 13 Sudeste 0 -- -- 87
2019-02-21 08:00:00 13.2 2 Sur 9 Sudoeste 0 -- -- 92
2019-02-21 07:00:00 12.7 5 Sudoeste 9 Sur 0 -- -- 92
2019-02-21 06:00:00 13 3 Sudoeste 8 Sur 0 -- -- 92
2019-02-21 05:00:00 13.1 2 Sudoeste 6 Sur 0 -- -- 92
2019-02-21 04:00:00 13.1 3 Sudoeste 7 Noroeste 0 -- -- 93
2019-02-21 03:00:00 12.9 3 Sudoeste 7 Oeste 0 -- -- 93
2019-02-21 02:00:00 12.1 3 Sudoeste 8 Oeste 0 -- -- 93
2019-02-21 01:00:00 12.4 6 Oeste 9 Oeste 0 -- -- 92
2019-02-21 00:00:00 12.5 6 Noroeste 9 Noroeste 0 -- -- 91
2019-02-20 23:00:00 13.1 5 Noroeste 11 Norte 0 -- -- 88
2019-02-20 22:00:00 14.6 7 Norte 10 Noroeste 0 -- -- 85
2019-02-20 21:00:00 15.1 5 Norte 24 Norte 0 -- -- 86
2019-02-20 20:00:00 15.6 12 Norte 18 Norte 0 -- -- 81
2019-02-20 19:00:00 15.7 13 Norte 23 Noroeste 0 -- -- 77
2019-02-20 18:00:00 16.3 17 Noroeste 26 Noroeste 0 -- -- 75
2019-02-20 17:00:00 17.1 12 Norte 21 Norte 0 -- -- 71
2019-02-20 16:00:00 16.7 11 Noroeste 25 Noroeste 0 -- -- 73
2019-02-20 15:00:00 17.3 20 Noroeste 29 Noroeste 0 -- -- 70
2019-02-20 14:00:00 18 17 Noroeste 23 Noroeste 0 -- -- 66
2019-02-20 13:00:00 20 17 Este 28 Este 0 -- -- 50
2019-02-20 12:00:00 19.2 15 Este 26 Este 0 -- -- 50
2019-02-20 11:00:00 18.3 8 Este 19 Este 0 -- -- 56
2019-02-20 10:00:00 16.6 6 Norte 15 Noroeste 0 -- -- 68
2019-02-20 09:00:00 14.1 6 Noroeste 14 Noroeste 0 -- -- 81
2019-02-20 08:00:00 12.5 10 Noroeste 22 Norte 0 -- -- 84
2019-02-20 07:00:00 13.2 13 Norte 21 Noroeste 0 -- -- 81
2019-02-20 06:00:00 13.3 14 Noroeste 20 Noroeste 0 -- -- 79
2019-02-20 05:00:00 13.1 13 Noroeste 18 Noroeste 0 -- -- 77
2019-02-20 04:00:00 12.2 11 Noroeste 15 Noroeste 0 -- -- 78
2019-02-20 03:00:00 10.5 9 Noroeste 12 Noroeste 0 -- -- 79
2019-02-20 02:00:00 11.2 10 Noroeste 19 Noroeste 0 -- -- 77
2019-02-20 01:00:00 10.6 11 Noroeste 12 Noroeste 0 -- -- 74
2019-02-20 00:00:00 11.3 7 Norte 11 Norte 0 -- -- 71
2019-02-19 23:00:00 13 5 Norte 13 Nordeste 0 -- -- 70
2019-02-19 22:00:00 12.3 8 Norte 15 Noroeste 0 -- -- 70
2019-02-19 21:00:00 12.9 12 Norte 21 Norte 0 -- -- 70
2019-02-19 20:00:00 13.1 14 Norte 29 Norte 0 -- -- 64
2019-02-19 19:00:00 14.2 22 Norte 35 Norte 0 -- -- 62
2019-02-19 18:00:00 15.1 25 Norte 40 Noroeste 0 -- -- 64
2019-02-19 17:00:00 16.5 26 Noroeste 44 Norte 0 -- -- 59
2019-02-19 16:00:00 16.9 25 Norte 40 Norte 0 -- -- 54
2019-02-19 15:00:00 16.8 26 Norte 44 Noroeste 0 -- -- 54
2019-02-19 14:00:00 -- 22 Norte 36 Norte 0 -- -- --
2019-02-19 13:00:00 16.7 24 Norte 41 Norte 0 -- -- 52
2019-02-19 12:00:00 17 23 Norte 37 Norte 0 -- -- 43
2019-02-19 11:00:00 16.6 23 Norte 33 Norte 0 -- -- 39
2019-02-19 10:00:00 15 23 Norte 36 Norte 0 -- -- 58
2019-02-19 09:00:00 13.5 21 Norte 30 Norte 0 -- -- 74
2019-02-19 08:00:00 11.5 12 Norte 19 Norte 0 -- -- 81
2019-02-19 07:00:00 11.1 13 Noroeste 17 Norte 0 -- -- 79
2019-02-19 06:00:00 10.4 12 Noroeste 18 Norte 0 -- -- 83
2019-02-19 05:00:00 10.7 13 Noroeste 19 Norte 0 -- -- 81
2019-02-19 04:00:00 11 14 Noroeste 21 Norte 0 -- -- 80
2019-02-19 03:00:00 11.4 15 Noroeste 20 Noroeste 0 -- -- 76
2019-02-19 02:00:00 11.3 13 Norte 18 Noroeste 0 -- -- 73
2019-02-19 01:00:00 11.4 14 Norte 21 Norte 0 -- -- 72
2019-02-19 00:00:00 11.6 12 Norte 26 Norte 0 -- -- 70
2019-02-18 23:00:00 12.2 12 Norte 19 Norte 0 -- -- 73
2019-02-18 22:00:00 12.3 12 Norte 33 Norte 0 -- -- 68
2019-02-18 21:00:00 13.8 24 Norte 35 Norte 0 -- -- 70
2019-02-18 20:00:00 13.7 17 Norte 40 Norte 0 -- -- 67
2019-02-18 19:00:00 14.6 30 Norte 44 Norte 0 -- -- 67
2019-02-18 18:00:00 15.5 30 Norte 44 Norte 0 -- -- 64
2019-02-18 17:00:00 17.1 28 Norte 53 Noroeste 0 -- -- 55
2019-02-18 16:00:00 17.3 31 Norte 42 Norte 0 -- -- 58
2019-02-18 15:00:00 17.1 28 Norte 42 Norte 0 -- -- 62
2019-02-18 14:00:00 17.7 28 Norte 40 Norte 0 -- -- 63
2019-02-18 13:00:00 17.4 26 Norte 36 Norte 0 -- -- 66
2019-02-18 12:00:00 17.8 23 Norte 36 Norte 0 -- -- 66
2019-02-18 11:00:00 16 24 Norte 42 Norte 0 -- -- 76
2019-02-18 10:00:00 16.3 21 Norte 29 Norte 0 -- -- 75
2019-02-18 09:00:00 15 20 Norte 26 Norte 0 -- -- 82
2019-02-18 08:00:00 12.3 2 Norte 14 Norte 0 -- -- 92
2019-02-18 07:00:00 13 12 Norte 22 Noroeste 0 -- -- 91
2019-02-18 06:00:00 13.6 15 Noroeste 20 Noroeste 0 -- -- 92
2019-02-18 05:00:00 13.7 13 Noroeste 21 Noroeste 0 -- -- 90
2019-02-18 04:00:00 14.2 15 Noroeste 19 Noroeste 0 -- -- 85
2019-02-18 03:00:00 13.9 10 Noroeste 19 Noroeste 0 -- -- 86
2019-02-18 02:00:00 13.6 8 Norte 21 Norte 0 -- -- 87
2019-02-18 01:00:00 14 14 Norte 23 Noroeste 0 -- -- 86
2019-02-18 00:00:00 14.4 16 Noroeste 24 Norte 0 -- -- 84
2019-02-17 23:00:00 14.5 19 Noroeste 25 Noroeste 0 -- -- 83
2019-02-17 22:00:00 15 21 Noroeste 29 Noroeste 0 -- -- 82
2019-02-17 21:00:00 15.1 24 Noroeste 31 Noroeste 0 -- -- 81
2019-02-17 20:00:00 15.3 22 Noroeste 30 Noroeste 0 -- -- 80
2019-02-17 19:00:00 16.9 18 Norte 27 Noroeste 0 -- -- 63
2019-02-17 18:00:00 18.3 14 Nordeste 27 Nordeste 0 -- -- 43
2019-02-17 17:00:00 19.3 17 Nordeste 30 Nordeste 0 -- -- 42
2019-02-17 16:00:00 20 21 Nordeste 32 Nordeste 0 -- -- 35
2019-02-17 15:00:00 20.3 15 Nordeste 35 Nordeste 0 -- -- 36
2019-02-17 14:00:00 20.7 17 Nordeste 39 Nordeste 0 -- -- 36
2019-02-17 13:00:00 20.1 25 Nordeste 43 Nordeste 0 -- -- 40
2019-02-17 12:00:00 19.4 20 Nordeste 33 Este 0 -- -- 44
2019-02-17 11:00:00 18.8 17 Nordeste 27 Nordeste 0 -- -- 45
2019-02-17 10:00:00 17.2 13 Norte 26 Noroeste 0 -- -- 60
2019-02-17 09:00:00 14.9 18 Noroeste 30 Noroeste 0 -- -- 84
2019-02-17 08:00:00 13 22 Noroeste 32 Noroeste 0 -- -- 92
2019-02-17 07:00:00 12.4 22 Noroeste 28 Noroeste 0 -- -- 91
2019-02-17 06:00:00 11.4 10 Norte 15 Norte 0 -- -- 88
2019-02-17 05:00:00 12.9 14 Noroeste 26 Noroeste 0 -- -- 86
2019-02-17 04:00:00 13.1 16 Noroeste 25 Noroeste 0 -- -- 74
2019-02-17 03:00:00 13.4 17 Noroeste 24 Norte 0 -- -- 58
2019-02-17 02:00:00 12.8 5 Norte 12 Norte 0 -- -- 61
2019-02-17 01:00:00 14.3 8 Norte 24 Nordeste 0 -- -- 56
2019-02-17 00:00:00 13.8 9 Norte 17 Noroeste 0 -- -- 62
2019-02-16 23:00:00 15.3 14 Norte 24 Nordeste 0 -- -- 63
2019-02-16 22:00:00 14.4 15 Noroeste 24 Noroeste 0 -- -- 68
2019-02-16 21:00:00 15.2 13 Norte 24 Nordeste 0 -- -- 64
2019-02-16 20:00:00 14.8 13 Norte 20 Norte 0 -- -- 69
2019-02-16 19:00:00 17.4 12 Nordeste 21 Nordeste 0 -- -- 29
2019-02-16 18:00:00 18.2 17 Norte 35 Noroeste 0 -- -- 61
2019-02-16 17:00:00 18.9 26 Noroeste 40 Noroeste 0 -- -- 69
2019-02-16 16:00:00 19.4 30 Noroeste 44 Noroeste 0 -- -- 65
2019-02-16 15:00:00 19 35 Noroeste 51 Noroeste 0 -- -- 69
2019-02-16 14:00:00 18.8 36 Noroeste 50 Noroeste 0 -- -- 69
2019-02-16 13:00:00 18.3 40 Noroeste 53 Noroeste 0 -- -- 71
2019-02-16 12:00:00 17.7 40 Noroeste 52 Noroeste 0 -- -- 68
2019-02-16 11:00:00 16.9 36 Noroeste 50 Noroeste 0 -- -- 68
2019-02-16 10:00:00 16.2 33 Noroeste 48 Noroeste 0 -- -- 71
2019-02-16 09:00:00 15.2 30 Noroeste 41 Noroeste 0 -- -- 74
2019-02-16 08:00:00 13.7 25 Noroeste 33 Noroeste 0 -- -- 81
2019-02-16 07:00:00 13.4 21 Noroeste 31 Noroeste 0 -- -- 81
2019-02-16 06:00:00 13.2 16 Noroeste 24 Noroeste 0 -- -- 82
2019-02-16 05:00:00 13.6 13 Noroeste 22 Noroeste 0 -- -- 84
2019-02-16 04:00:00 13.1 12 Noroeste 21 Noroeste 0 -- -- 82
2019-02-16 03:00:00 13.3 12 Noroeste 21 Noroeste 0 -- -- 82
2019-02-16 02:00:00 13.6 15 Noroeste 26 Noroeste 0 -- -- 83
2019-02-16 01:00:00 13.6 15 Noroeste 27 Noroeste 0 -- -- 80
2019-02-16 00:00:00 13.5 17 Noroeste 35 Noroeste 0 -- -- 81
2019-02-15 23:00:00 13.7 22 Noroeste 39 Noroeste 0 -- -- 83
2019-02-15 22:00:00 13.4 19 Noroeste 32 Noroeste 0 -- -- 81
2019-02-15 21:00:00 13.5 15 Oeste 28 Noroeste 0 -- -- 80
2019-02-15 20:00:00 13.5 20 Noroeste 36 Noroeste 0 -- -- 76
2019-02-15 19:00:00 12.2 13 Norte 26 Noroeste 0 -- -- 85
2019-02-15 18:00:00 13.4 18 Noroeste 43 Noroeste 0 -- -- 77
2019-02-15 17:00:00 13.2 39 Noroeste 49 Norte 0.4 -- -- 80
2019-02-15 16:00:00 13 29 Noroeste 55 Noroeste 0 -- -- 81
2019-02-15 15:00:00 15 39 Noroeste 55 Noroeste 0 -- -- 67
2019-02-15 14:00:00 16 34 Noroeste 52 Noroeste 0 -- -- 65
2019-02-15 13:00:00 20.2 16 Oeste 32 Sur 0 -- -- 46
2019-02-15 12:00:00 19.5 21 Sur 33 Sur 0 -- -- 37
2019-02-15 11:00:00 18.6 17 Sur 27 Sur 0 -- -- 42
2019-02-15 10:00:00 17 19 Sur 32 Sur 0 -- -- 45
2019-02-15 09:00:00 15.8 18 Sur 30 Sur 0 -- -- 47
2019-02-15 08:00:00 14.8 14 Sur 28 Sur 0 -- -- 45
2019-02-15 07:00:00 14.3 16 Sur 23 Sur 0 -- -- 44
2019-02-15 06:00:00 14.2 6 Sur 14 Sur 0 -- -- 44
2019-02-15 05:00:00 14.8 10 Sur 27 Sur 0 -- -- 49
2019-02-15 04:00:00 16.4 18 Sur 27 Sur 0 -- -- 45
2019-02-15 03:00:00 16.7 16 Sur 27 Sur 0 -- -- 40
2019-02-15 02:00:00 18.3 14 Sur 38 Sur 0 -- -- 29
2019-02-15 01:00:00 19.3 20 Sur 37 Sur 0 -- -- 23
2019-02-15 00:00:00 19.3 17 Sur 27 Sur 0 -- -- 23
2019-02-14 23:00:00 18.4 10 Sur 21 Sur 0 -- -- 25
2019-02-14 22:00:00 19.2 16 Sur 20 Sur 0 -- -- 25
2019-02-14 21:00:00 18.9 11 Sur 17 Sur 0 -- -- 26
2019-02-14 20:00:00 19.4 10 Sur 19 Sur 0 -- -- 29
2019-02-14 19:00:00 21.1 13 Sur 28 Sur 0 -- -- 26
2019-02-14 18:00:00 23 19 Sur 39 Sur 0 -- -- 24
2019-02-14 17:00:00 24.2 27 Sur 49 Sur 0 -- -- 21
2019-02-14 16:00:00 24.5 33 Sur 52 Sur 0 -- -- 22
2019-02-14 15:00:00 24.1 36 Sudeste 55 Sudeste 0 -- -- 23
2019-02-14 14:00:00 23.4 27 Sur 44 Sur 0 -- -- 25
2019-02-14 13:00:00 22.4 29 Sur 45 Sur 0 -- -- 32
2019-02-14 12:00:00 21.5 28 Sur 43 Sur 0 -- -- 33
2019-02-14 11:00:00 21.1 28 Sur 40 Sur 0 -- -- 35
2019-02-14 10:00:00 20.3 20 Sur 35 Sur 0 -- -- 36
2019-02-14 09:00:00 18.8 18 Sur 27 Sur 0 -- -- 37
2019-02-14 08:00:00 16.3 12 Sur 23 Sur 0 -- -- 42
2019-02-14 07:00:00 16.9 12 Sur 23 Sur 0 -- -- 41
2019-02-14 06:00:00 17.1 13 Sur 17 Sur 0 -- -- 31
2019-02-14 05:00:00 17.2 8 Sur 12 Sur 0 -- -- 27
2019-02-14 04:00:00 17.4 0 Calma 9 Sur 0 -- -- 30
2019-02-14 03:00:00 15.9 5 Sudoeste 11 Sudoeste 0 -- -- 45
2019-02-14 02:00:00 15.6 8 Sudoeste 19 Este 0 -- -- 58
2019-02-14 01:00:00 17.2 2 Sur 13 Nordeste 0 -- -- 17
2019-02-14 00:00:00 16.7 2 Noroeste 5 Oeste 0 -- -- 17
2019-02-13 23:00:00 16.7 3 Oeste 5 Sudoeste 0 -- -- 17
2019-02-13 22:00:00 17.6 3 Noroeste 5 Norte 0 -- -- 16
2019-02-13 21:00:00 18.7 3 Noroeste 6 Noroeste 0 -- -- 15
2019-02-13 20:00:00 19 3 Norte 8 Sudoeste 0 -- -- 16
2019-02-13 19:00:00 22.6 6 Sudoeste 14 Sur 0 -- -- 13
2019-02-13 18:00:00 25.5 12 Sur 22 Sur 0 -- -- 12
2019-02-13 17:00:00 26.3 13 Sur 27 Sudeste 0 -- -- 14
2019-02-13 16:00:00 27 16 Sudeste 28 Sudeste 0 -- -- 13
2019-02-13 15:00:00 26.8 20 Sur 32 Sudeste 0 -- -- 13
2019-02-13 14:00:00 24.8 13 Sudeste 24 Sudeste 0 -- -- 29
2019-02-13 13:00:00 24.6 12 Sudeste 20 Este 0 -- -- 30
2019-02-13 12:00:00 23.5 10 Sudeste 20 Sudeste 0 -- -- 26
2019-02-13 11:00:00 21.8 10 Sudeste 17 Sudeste 0 -- -- 35
2019-02-13 10:00:00 19.9 5 Este 9 Este 0 -- -- 42
2019-02-13 09:00:00 18 5 Este 11 Este 0 -- -- 49
2019-02-13 08:00:00 15.5 0 Calma 6 Sur 0 -- -- 57
2019-02-13 07:00:00 13.8 3 Sudoeste 11 Sur 0 -- -- 76
2019-02-13 06:00:00 14.8 4 Sudoeste 11 Sudoeste 0 -- -- 65
2019-02-13 05:00:00 13.6 8 Sur 12 Sur 0 -- -- 89
2019-02-13 04:00:00 13.4 5 Sudeste 9 Sur 0 -- -- 76
2019-02-13 03:00:00 11.3 0 Calma 7 Noroeste 0 -- -- 75
2019-02-13 02:00:00 11.6 4 Noroeste 10 Sudoeste 0 -- -- 91
2019-02-13 01:00:00 13.3 5 Sur 6 Sur 0 -- -- 92
2019-02-13 00:00:00 13.7 4 Sudoeste 8 Sudoeste 0 -- -- 87
2019-02-12 23:00:00 13.9 3 Norte 7 Norte 0 -- -- 63
2019-02-12 22:00:00 13.6 0 Calma 6 Noroeste 0 -- -- 59
2019-02-12 21:00:00 14.5 0 Calma 3 Oeste 0 -- -- 76
2019-02-12 20:00:00 16.7 0 Calma 4 Este 0 -- -- 77
2019-02-12 19:00:00 18.5 2 Sudeste 12 Este 0 -- -- 68
2019-02-12 18:00:00 21.3 9 Este 15 Este 0 -- -- 52
2019-02-12 17:00:00 23.8 12 Este 17 Este 0 -- -- 41
2019-02-12 16:00:00 24.3 9 Sudeste 15 Este 0 -- -- 36
2019-02-12 15:00:00 23.8 10 Este 23 Este 0 -- -- 39
2019-02-12 14:00:00 23.9 13 Este 27 Este 0 -- -- 35
2019-02-12 13:00:00 23.6 14 Este 26 Este 0 -- -- 33
2019-02-12 12:00:00 22.8 12 Este 21 Sudeste 0 -- -- 36
2019-02-12 11:00:00 21.8 12 Este 22 Este 0 -- -- 40
2019-02-12 10:00:00 19.8 7 Sudeste 14 Sudeste 0 -- -- 48
2019-02-12 09:00:00 18.3 6 Sur 12 Sudeste 0 -- -- 47
2019-02-12 08:00:00 16.4 8 Sur 13 Sudoeste 0 -- -- 49
2019-02-12 07:00:00 16.3 8 Sudoeste 13 Sur 0 -- -- 47
2019-02-12 06:00:00 16.4 4 Sur 14 Sur 0 -- -- 49
2019-02-12 05:00:00 16 6 Sur 12 Sudoeste 0 -- -- 53
2019-02-12 04:00:00 13.5 0 Calma 13 Oeste 0 -- -- 59
2019-02-12 03:00:00 13.6 2 Oeste 6 Oeste 0 -- -- 52
2019-02-12 02:00:00 14.8 3 Sur 7 Noroeste 0 -- -- 39
2019-02-12 01:00:00 15 3 Noroeste 9 Norte 0 -- -- 33
2019-02-12 00:00:00 16.4 7 Noroeste 12 Noroeste 0 -- -- 31
2019-02-11 23:00:00 16.1 12 Noroeste 14 Noroeste 0 -- -- 35
2019-02-11 22:00:00 16.6 9 Noroeste 14 Noroeste 0 -- -- 32
2019-02-11 21:00:00 16.9 8 Noroeste 15 Noroeste 0 -- -- 34
2019-02-11 20:00:00 17.3 6 Noroeste 10 Norte 0 -- -- 39
2019-02-11 19:00:00 19.1 3 Sur 12 Este 0 -- -- 48
2019-02-11 18:00:00 22.7 9 Este 16 Este 0 -- -- 44
2019-02-11 17:00:00 24.3 7 Este 17 Nordeste 0 -- -- 25
2019-02-11 16:00:00 24.2 14 Este 21 Este 0 -- -- 30
2019-02-11 15:00:00 24.6 11 Este 23 Sudeste 0 -- -- 26
2019-02-11 14:00:00 24.1 14 Este 24 Nordeste 0 -- -- 32
2019-02-11 13:00:00 24 14 Este 24 Este 0 -- -- 32
2019-02-11 12:00:00 23.1 15 Este 23 Sudeste 0 -- -- 33
2019-02-11 11:00:00 21.5 13 Este 19 Este 0 -- -- 40
2019-02-11 10:00:00 19.9 9 Este 13 Este 0 -- -- 53
2019-02-11 09:00:00 18.4 0 Calma 14 Sudoeste 0 -- -- 55
2019-02-11 08:00:00 16.3 8 Oeste 19 Oeste 0 -- -- 55
2019-02-11 07:00:00 16.2 3 Sudeste 12 Oeste 0 -- -- 58
2019-02-11 06:00:00 15.1 9 Oeste 13 Sudoeste 0 -- -- 65
2019-02-11 05:00:00 15.9 8 Sudeste 19 Este 0 -- -- 63
2019-02-11 04:00:00 16.3 3 Sudeste 18 Sudeste 0 -- -- 59
2019-02-11 03:00:00 15.9 5 Sur 18 Sudeste 0 -- -- 61
2019-02-11 02:00:00 15.8 5 Sudeste 10 Sudeste 0 -- -- 62
2019-02-11 01:00:00 15.7 6 Sur 13 Sudoeste 0 -- -- 65
2019-02-11 00:00:00 15.3 8 Noroeste 16 Oeste 0 -- -- 71
2019-02-10 23:00:00 16.2 5 Sudoeste 15 Noroeste 0 -- -- 52
2019-02-10 22:00:00 15.6 5 Oeste 13 Noroeste 0 -- -- 44
2019-02-10 21:00:00 15.4 9 Noroeste 16 Noroeste 0 -- -- 54
2019-02-10 20:00:00 16.2 12 Noroeste 15 Noroeste 0 -- -- 47
2019-02-10 19:00:00 17.5 9 Noroeste 11 Sudeste 0 -- -- 40
2019-02-10 18:00:00 20.4 12 Este 21 Este 0 -- -- 42
2019-02-10 17:00:00 22.4 14 Este 21 Este 0 -- -- 33
2019-02-10 16:00:00 22.8 15 Este 26 Este 0 -- -- 31
2019-02-10 15:00:00 22.3 15 Este 30 Este 0 -- -- 37
2019-02-10 14:00:00 21.7 18 Este 29 Este 0 -- -- 43
2019-02-10 13:00:00 21.2 19 Este 31 Este 0 -- -- 47
2019-02-10 12:00:00 20.3 21 Este 28 Este 0 -- -- 51
2019-02-10 11:00:00 19.2 19 Este 29 Este 0 -- -- 60
2019-02-10 10:00:00 17.7 9 Este 21 Este 0 -- -- 71
2019-02-10 09:00:00 15.2 4 Noroeste 13 Noroeste 0 -- -- 83
2019-02-10 08:00:00 11.9 10 Noroeste 14 Noroeste 0 -- -- 93
2019-02-10 07:00:00 11.1 8 Noroeste 12 Noroeste 0 -- -- 93
2019-02-10 06:00:00 11.5 6 Oeste 9 Oeste 0 -- -- 93
2019-02-10 05:00:00 12.4 5 Oeste 9 Oeste 0 -- -- 93
2019-02-10 04:00:00 12.7 6 Oeste 10 Nordeste 0 -- -- 94
2019-02-10 03:00:00 12.2 5 Noroeste 8 Oeste 0 -- -- 92
2019-02-10 02:00:00 12.3 4 Noroeste 12 Noroeste 0 -- -- 90
2019-02-10 01:00:00 12.2 5 Oeste 13 Oeste 0 -- -- 83
2019-02-10 00:00:00 13.3 0 Calma 19 Este 0 -- -- 73
2019-02-09 23:00:00 10.7 7 Noroeste 9 Noroeste 0 -- -- 60
2019-02-09 22:00:00 12.1 5 Noroeste 10 Norte 0 -- -- 88
2019-02-09 21:00:00 13.5 0 Calma 5 Nordeste 0 -- -- 87
2019-02-09 20:00:00 13.7 0 Calma 5 Oeste 0 -- -- 79
2019-02-09 19:00:00 16 0 Calma 14 Este 0 -- -- 78
2019-02-09 18:00:00 18.6 10 Este 15 Este 0 -- -- 66
2019-02-09 17:00:00 19.6 6 Sudeste 18 Este 0 -- -- 57
2019-02-09 16:00:00 19.9 14 Este 24 Este 0 -- -- 55
2019-02-09 15:00:00 20.5 15 Este 25 Este 0 -- -- 52
2019-02-09 14:00:00 20.5 12 Este 22 Este 0 -- -- 53
2019-02-09 13:00:00 19.6 10 Este 19 Sudeste 0 -- -- 58
2019-02-09 12:00:00 18.2 11 Este 19 Este 0 -- -- 65
2019-02-09 11:00:00 17 11 Este 18 Este 0 -- -- 70
2019-02-09 10:00:00 15.9 9 Este 17 Sudeste 0 -- -- 77
2019-02-09 09:00:00 14.2 4 Sur 9 Sudeste 0 -- -- 84
2019-02-09 08:00:00 12.6 4 Sur 9 Sudeste 0 -- -- 87
2019-02-09 07:00:00 12.4 3 Sudeste 8 Sur 0 -- -- 87
2019-02-09 06:00:00 12.4 5 Sur 10 Sudeste 0 -- -- 88
2019-02-09 05:00:00 11.9 4 Sur 9 Sur 0 -- -- 90
2019-02-09 04:00:00 10.7 4 Noroeste 9 Oeste 0 -- -- 91
2019-02-09 03:00:00 10.9 4 Noroeste 8 Oeste 0 -- -- 90
2019-02-09 02:00:00 11.5 4 Noroeste 10 Oeste 0 -- -- 88
2019-02-09 01:00:00 11.4 4 Noroeste 10 Noroeste 0 -- -- 89
2019-02-09 00:00:00 11.3 4 Noroeste 7 Noroeste 0 -- -- 88
2019-02-08 23:00:00 11.7 3 Noroeste 9 Nordeste 0 -- -- 88
2019-02-08 22:00:00 11.9 3 Noroeste 8 Noroeste 0 -- -- 87
2019-02-08 21:00:00 12.5 4 Oeste 8 Nordeste 0 -- -- 84
2019-02-08 20:00:00 13.7 6 Nordeste 10 Nordeste 0 -- -- 81
2019-02-08 19:00:00 14.6 10 Nordeste 21 Nordeste 0 -- -- 77
2019-02-08 18:00:00 16.3 10 Este 22 Este 0 -- -- 69
2019-02-08 17:00:00 17.7 11 Nordeste 26 Este 0 -- -- 62
2019-02-08 16:00:00 18.6 10 Este 23 Este 0 -- -- 60
2019-02-08 15:00:00 18.6 13 Este 23 Este 0 -- -- 59
2019-02-08 14:00:00 18.2 13 Este 27 Este 0 -- -- 59
2019-02-08 13:00:00 17.7 14 Este 27 Este 0 -- -- 62
2019-02-08 12:00:00 17.3 16 Este 28 Nordeste 0 -- -- 64
2019-02-08 11:00:00 16.4 10 Este 23 Este 0 -- -- 69
2019-02-08 10:00:00 15.3 11 Nordeste 19 Nordeste 0 -- -- 73
2019-02-08 09:00:00 12.9 7 Norte 13 Norte 0 -- -- 88
2019-02-08 08:00:00 10 6 Noroeste 9 Norte 0 -- -- 92
2019-02-08 07:00:00 10.1 6 Noroeste 8 Noroeste 0 -- -- 91
2019-02-08 06:00:00 10.2 6 Noroeste 9 Noroeste 0 -- -- 91
2019-02-08 05:00:00 10.6 4 Noroeste 7 Noroeste 0 -- -- 90
2019-02-08 04:00:00 11.2 4 Noroeste 9 Norte 0 -- -- 86
2019-02-08 03:00:00 12.4 5 Norte 17 Nordeste 0 -- -- 84
2019-02-08 02:00:00 12.7 8 Norte 17 Norte 0 -- -- 84
2019-02-08 01:00:00 12.9 3 Nordeste 16 Nordeste 0 -- -- 83
2019-02-08 00:00:00 12.8 8 Nordeste 15 Nordeste 0 -- -- 85
2019-02-07 23:00:00 12.8 5 Norte 15 Nordeste 0 -- -- 86
2019-02-07 22:00:00 13.2 8 Norte 17 Nordeste 0 -- -- 86
2019-02-07 21:00:00 13.6 6 Nordeste 19 Nordeste 0 -- -- 85
2019-02-07 20:00:00 13.9 9 Nordeste 21 Nordeste 0 -- -- 84
2019-02-07 19:00:00 14.5 12 Nordeste 22 Nordeste 0 -- -- 79
2019-02-07 18:00:00 16.2 15 Nordeste 22 Nordeste 0 -- -- 67
2019-02-07 17:00:00 17.6 14 Nordeste 24 Nordeste 0 -- -- 61
2019-02-07 16:00:00 18.8 12 Nordeste 25 Nordeste 0 -- -- 58
2019-02-07 15:00:00 18.8 11 Nordeste 25 Este 0 -- -- 57
2019-02-07 14:00:00 18.7 14 Este 39 Este 0 -- -- 61
2019-02-07 13:00:00 18.6 15 Este 27 Este 0 -- -- 62
2019-02-07 12:00:00 17.5 13 Nordeste 26 Este 0 -- -- 67
2019-02-07 11:00:00 17.3 17 Este 28 Este 0 -- -- 68
2019-02-07 10:00:00 16.2 10 Este 23 Nordeste 0 -- -- 75
2019-02-07 09:00:00 14.6 5 Sudoeste 12 Sudeste 0 -- -- 83
2019-02-07 08:00:00 13.1 5 Sudoeste 13 Sudeste 0 -- -- 90
2019-02-07 07:00:00 13.2 4 Sur 17 Sudoeste 0 -- -- 89
2019-02-07 06:00:00 13.2 6 Sudoeste 22 Noroeste 0 -- -- 89
2019-02-07 05:00:00 13.3 5 Norte 16 Norte 0 -- -- 91
2019-02-07 04:00:00 13.2 5 Oeste 17 Noroeste 0 -- -- 92
2019-02-07 03:00:00 13.1 5 Noroeste 17 Noroeste 0 -- -- 93
2019-02-07 02:00:00 12.9 10 Noroeste 15 Noroeste 0 -- -- 94
2019-02-07 01:00:00 13.2 9 Norte 16 Norte 0 -- -- 93
2019-02-07 00:00:00 13.2 9 Norte 16 Nordeste 0 -- -- 91
2019-02-06 23:00:00 13.4 5 Norte 11 Norte 0 -- -- 86
2019-02-06 22:00:00 13.9 8 Noroeste 16 Norte 0 -- -- 80
2019-02-06 21:00:00 14 9 Norte 13 Norte 0 -- -- 64
2019-02-06 20:00:00 14.3 5 Noroeste 7 Noroeste 0 -- -- 57
2019-02-06 19:00:00 17.1 4 Sudoeste 10 Este 0 -- -- 50
2019-02-06 18:00:00 19.6 6 Sudeste 16 Este 0 -- -- 42
2019-02-06 17:00:00 20.8 9 Este 21 Este 0 -- -- 31
2019-02-06 16:00:00 21.4 12 Este 24 Este 0 -- -- 30
2019-02-06 15:00:00 21.4 15 Este 30 Este 0 -- -- 27
2019-02-06 14:00:00 21.4 19 Este 34 Este 0 -- -- 30
2019-02-06 13:00:00 20.7 21 Este 32 Este 0 -- -- 36
2019-02-06 12:00:00 20.1 21 Este 32 Este 0 -- -- 41
2019-02-06 11:00:00 18.9 18 Este 27 Este 0 -- -- 51
2019-02-06 10:00:00 17 4 Sudeste 12 Este 0 -- -- 77
2019-02-06 09:00:00 14.8 4 Sudoeste 6 Sudoeste 0 -- -- 86
2019-02-06 08:00:00 12.8 2 Sudoeste 5 Oeste 0 -- -- 90
2019-02-06 07:00:00 12.7 3 Sudoeste 7 Oeste 0 -- -- 84
2019-02-06 06:00:00 12.4 4 Oeste 7 Oeste 0 -- -- 84
2019-02-06 05:00:00 13.4 3 Sur 9 Este 0 -- -- 77
2019-02-06 04:00:00 14.3 5 Sur 10 Sudeste 0 -- -- 67
2019-02-06 03:00:00 14.5 6 Sudeste 13 Sudeste 0 -- -- 58
2019-02-06 02:00:00 14.1 0 Calma 8 Este 0 -- -- 56
2019-02-06 01:00:00 14.5 0 Calma 12 Sudeste 0 -- -- 55
2019-02-06 00:00:00 14 6 Sudoeste 10 Sur 0 -- -- 56
2019-02-05 23:00:00 13.8 0 Calma 5 Este 0 -- -- 38
2019-02-05 22:00:00 15.1 5 Sudoeste 13 Oeste 0 -- -- 29
2019-02-05 21:00:00 13.5 10 Oeste 13 Oeste 0 -- -- 39
2019-02-05 20:00:00 15.1 3 Sur 6 Sudoeste 0 -- -- 41
2019-02-05 19:00:00 17.1 4 Sur 11 Este 0 -- -- 32
2019-02-05 18:00:00 19.8 9 Este 17 Este 0 -- -- 21
2019-02-05 17:00:00 20.8 10 Sudeste 24 Este 0 -- -- 21
2019-02-05 16:00:00 20.8 15 Sudeste 28 Sudeste 0 -- -- 20
2019-02-05 15:00:00 20.8 17 Este 28 Este 0 -- -- 25
2019-02-05 14:00:00 20.7 17 Sudeste 32 Sudeste 0 -- -- 22
2019-02-05 13:00:00 20.7 22 Sudeste 31 Sudeste 0 -- -- 22
2019-02-05 12:00:00 20.4 18 Sudeste 29 Este 0 -- -- 27
2019-02-05 11:00:00 19.3 14 Sudeste 23 Sudeste 0 -- -- 33
2019-02-05 10:00:00 17.5 9 Sudeste 16 Sudeste 0 -- -- 47
2019-02-05 09:00:00 13.2 0 Calma 5 Sudoeste 0 -- -- 65
2019-02-05 08:00:00 10.5 0 Calma 5 Sudoeste 0 -- -- 68
2019-02-05 07:00:00 9.9 2 Oeste 7 Sudoeste 0 -- -- 77
2019-02-05 06:00:00 12.6 3 Sudoeste 7 Sudoeste 0 -- -- 87
2019-02-05 05:00:00 12.7 6 Sudoeste 8 Sudoeste 0 -- -- 87
2019-02-05 04:00:00 12.8 3 Sudoeste 7 Sudoeste 0 -- -- 83
2019-02-05 03:00:00 13.1 3 Sudoeste 9 Oeste 0 -- -- 78
2019-02-05 02:00:00 14.6 3 Sudoeste 10 Sur 0 -- -- 72
2019-02-05 01:00:00 14.4 5 Sudoeste 9 Sudoeste 0 -- -- 57
2019-02-05 00:00:00 14.6 5 Sudoeste 13 Sudeste 0 -- -- 66
2019-02-04 23:00:00 14.8 6 Sudeste 15 Sur 0 -- -- 71
2019-02-04 22:00:00 14.1 2 Oeste 5 Oeste 0 -- -- 71
2019-02-04 21:00:00 13.5 2 Norte 6 Norte 0 -- -- 86
2019-02-04 20:00:00 15.4 2 Noroeste 8 Este 0 -- -- 82
2019-02-04 19:00:00 17.3 4 Sudeste 11 Este 0 -- -- 72
2019-02-04 18:00:00 19.9 8 Este 20 Este 0 -- -- 55
2019-02-04 17:00:00 22.3 12 Sudeste 26 Sudeste 0 -- -- 32
2019-02-04 16:00:00 22.8 17 Sudeste 32 Este 0 -- -- 30
2019-02-04 15:00:00 22.1 17 Sudeste 28 Sudeste 0 -- -- 38
2019-02-04 14:00:00 21.1 18 Sudeste 32 Este 0 -- -- 47
2019-02-04 13:00:00 20 16 Este 28 Este 0 -- -- 60
2019-02-04 12:00:00 18.8 15 Este 26 Este 0 -- -- 68
2019-02-04 11:00:00 17.5 12 Este 19 Este 0 -- -- 75
2019-02-04 10:00:00 16 11 Este 19 Este 0 -- -- 85
2019-02-04 09:00:00 14.1 3 Sudeste 11 Sur 0 -- -- 92
2019-02-04 08:00:00 12.1 5 Oeste 9 Oeste 0 -- -- 92
2019-02-04 07:00:00 12.9 4 Oeste 10 Nordeste 0 -- -- 91
2019-02-04 06:00:00 12.8 4 Noroeste 8 Oeste 0 -- -- 90
2019-02-04 05:00:00 13.1 4 Nordeste 21 Nordeste 0 -- -- 89
2019-02-04 04:00:00 13.4 13 Nordeste 23 Nordeste 0 -- -- 88
2019-02-04 03:00:00 13.3 10 Nordeste 27 Nordeste 0 -- -- 88
2019-02-04 02:00:00 13.3 13 Nordeste 26 Nordeste 0 -- -- 86
2019-02-04 01:00:00 13.2 12 Nordeste 30 Nordeste 0 -- -- 85
2019-02-04 00:00:00 13.1 8 Nordeste 26 Nordeste 0 -- -- 84
2019-02-03 23:00:00 13.4 11 Norte 26 Nordeste 0 -- -- 83
2019-02-03 22:00:00 13.6 13 Nordeste 32 Nordeste 0 -- -- 81
2019-02-03 21:00:00 13.6 13 Nordeste 38 Nordeste 0 -- -- 80
2019-02-03 20:00:00 13.7 18 Nordeste 35 Nordeste 0 -- -- 79
2019-02-03 19:00:00 14.1 22 Nordeste 34 Norte 0 -- -- 79
2019-02-03 18:00:00 15.3 22 Nordeste 36 Nordeste 0 -- -- 72
2019-02-03 17:00:00 16.6 20 Nordeste 39 Nordeste 0 -- -- 66
2019-02-03 16:00:00 17.3 26 Nordeste 42 Nordeste 0 -- -- 64
2019-02-03 15:00:00 17.4 30 Nordeste 47 Norte 0 -- -- 63
2019-02-03 14:00:00 17 27 Norte 45 Nordeste 0 -- -- 63
2019-02-03 13:00:00 17.2 25 Nordeste 41 Nordeste 0 -- -- 64
2019-02-03 12:00:00 16.1 23 Nordeste 36 Nordeste 0 -- -- 69
2019-02-03 11:00:00 15 26 Nordeste 37 Norte 0 -- -- 68
2019-02-03 10:00:00 15 21 Nordeste 36 Nordeste 0 -- -- 67
2019-02-03 09:00:00 14.2 18 Nordeste 34 Norte 0 -- -- 72
2019-02-03 08:00:00 13.2 12 Norte 33 Nordeste 0 -- -- 73
2019-02-03 07:00:00 13.8 21 Nordeste 35 Nordeste 0 -- -- 72
2019-02-03 06:00:00 13.4 17 Nordeste 37 Norte 0 -- -- 73
2019-02-03 05:00:00 12.9 16 Norte 36 Norte 0 -- -- 73
2019-02-03 04:00:00 13 19 Norte 32 Norte 0 -- -- 70
2019-02-03 03:00:00 13.4 18 Norte 33 Nordeste 0 -- -- 71
2019-02-03 02:00:00 13.8 22 Norte 36 Norte 0 -- -- 68
2019-02-03 01:00:00 14 21 Norte 35 Norte 0 -- -- 67
2019-02-03 00:00:00 13.9 22 Norte 33 Norte 0 -- -- 71
2019-02-02 23:00:00 13.5 19 Norte 28 Norte 0 -- -- 71
2019-02-02 22:00:00 13.3 18 Norte 44 Norte 0 -- -- 67
2019-02-02 21:00:00 14.2 30 Norte 47 Norte 0 -- -- 64
2019-02-02 20:00:00 14.8 25 Norte 42 Norte 0 -- -- 70
2019-02-02 19:00:00 15.1 28 Norte 41 Norte 0 -- -- 69
2019-02-02 18:00:00 15.5 28 Norte 46 Norte 0 -- -- 65
2019-02-02 17:00:00 17.1 31 Norte 45 Norte 0 -- -- 58
2019-02-02 16:00:00 17 30 Norte 44 Norte 0 -- -- 60
2019-02-02 15:00:00 17.7 28 Norte 48 Norte 0 -- -- 54
2019-02-02 14:00:00 17.8 28 Norte 45 Norte 0 -- -- 53
2019-02-02 13:00:00 17.2 22 Norte 36 Norte 0 -- -- 57
2019-02-02 12:00:00 16.3 21 Norte 38 Norte 0 -- -- 60
2019-02-02 11:00:00 15.6 22 Nordeste 37 Nordeste 0 -- -- 62
2019-02-02 10:00:00 15.1 21 Norte 37 Norte 0 -- -- 65
2019-02-02 09:00:00 14.1 13 Norte 23 Norte 0 -- -- 77
2019-02-02 08:00:00 12.5 9 Norte 17 Norte 0 -- -- 83
2019-02-02 07:00:00 13 13 Norte 25 Norte 0 -- -- 81
2019-02-02 06:00:00 12.4 13 Norte 28 Norte 0 -- -- 84
2019-02-02 05:00:00 13.5 18 Norte 34 Norte 0 -- -- 85
2019-02-02 04:00:00 13.2 13 Norte 27 Norte 0 -- -- 87
2019-02-02 03:00:00 13.7 18 Norte 33 Norte 0 -- -- 89
2019-02-02 02:00:00 14.4 22 Norte 35 Norte 0 -- -- 95
2019-02-02 01:00:00 14.6 25 Norte 35 Norte 0.6 -- -- 97
2019-02-02 00:00:00 15.3 21 Norte 33 Noroeste 0.6 -- -- 97
2019-02-01 23:00:00 15.6 17 Noroeste 35 Noroeste 0 -- -- 95
2019-02-01 22:00:00 15.6 23 Noroeste 37 Noroeste 0.2 -- -- 95
2019-02-01 21:00:00 15.3 16 Noroeste 35 Noroeste 0 -- -- 95
2019-02-01 20:00:00 15.1 21 Noroeste 36 Noroeste 0 -- -- 95
2019-02-01 19:00:00 15.3 26 Noroeste 39 Noroeste -- -- -- 94
2019-02-01 18:00:00 15.9 23 Noroeste 37 Noroeste 0 -- -- 90
2019-02-01 17:00:00 17.2 27 Noroeste 39 Noroeste 0 -- -- 80
2019-02-01 16:00:00 18.9 24 Noroeste 42 Noroeste 0 -- -- 68
2019-02-01 15:00:00 19.4 31 Noroeste 43 Noroeste 0 -- -- 64
2019-02-01 14:00:00 19.8 23 Noroeste 35 Noroeste 0 -- -- 62
2019-02-01 13:00:00 19.2 25 Noroeste 37 Noroeste 0 -- -- 63
2019-02-01 12:00:00 -- -- -- -- -- -- -- -- --
2019-02-01 11:00:00 18.4 24 Noroeste 37 Noroeste 0 -- -- 64
2019-02-01 10:00:00 17 23 Noroeste 33 Noroeste 0 -- -- 70
2019-02-01 09:00:00 16.5 22 Noroeste 31 Noroeste 0 -- -- 73
2019-02-01 08:00:00 15.1 20 Noroeste 31 Noroeste 0 -- -- 78
2019-02-01 07:00:00 14.9 14 Noroeste 32 Noroeste 0 -- -- 69
2019-02-01 06:00:00 14.9 21 Noroeste 31 Noroeste 0 -- -- 69
2019-02-01 05:00:00 15 23 Noroeste 33 Noroeste 0 -- -- 68
2019-02-01 04:00:00 15.1 19 Noroeste 28 Noroeste 0 -- -- 69
2019-02-01 03:00:00 15.2 14 Noroeste 26 Noroeste 0 -- -- 70
2019-02-01 02:00:00 15.2 17 Noroeste 26 Noroeste 0 -- -- 69
2019-02-01 01:00:00 14.9 9 Noroeste 27 Norte 0 -- -- 68
2019-02-01 00:00:00 15.1 17 Norte 30 Noroeste 0 -- -- 67
2019-01-31 23:00:00 15 11 Norte 25 Noroeste 0 -- -- 69
2019-01-31 22:00:00 15.1 16 Norte 28 Norte 0 -- -- 69
2019-01-31 21:00:00 15.2 15 Norte 27 Norte 0 -- -- 69
2019-01-31 20:00:00 15.2 18 Norte 30 Noroeste 0 -- -- 68
2019-01-31 19:00:00 15.4 20 Norte 28 Noroeste 0 -- -- 72
2019-01-31 18:00:00 15.8 22 Norte 35 Noroeste 0 -- -- 69
2019-01-31 17:00:00 16.3 25 Norte 39 Noroeste 0 -- -- 65
2019-01-31 16:00:00 16.7 23 Norte 37 Norte 0 -- -- 70
2019-01-31 15:00:00 16.7 28 Norte 36 Norte 0 -- -- 70
2019-01-31 14:00:00 16.9 23 Norte 36 Norte 0 -- -- 66
2019-01-31 13:00:00 14.7 26 Norte 40 Noroeste 0.2 -- -- 91
2019-01-31 12:00:00 17.4 22 Norte 33 Noroeste 0 -- -- 69
2019-01-31 11:00:00 16.9 19 Norte 29 Noroeste 0 -- -- 67
2019-01-31 10:00:00 15.5 18 Norte 28 Norte 0 -- -- 65
2019-01-31 09:00:00 14.6 16 Norte 27 Norte 0 -- -- 70
2019-01-31 08:00:00 13.9 13 Norte 27 Norte 0 -- -- 72
2019-01-31 07:00:00 13.8 15 Norte 24 Norte 0 -- -- 72
2019-01-31 06:00:00 13.7 13 Norte 30 Norte 0 -- -- 73
2019-01-31 05:00:00 13.5 13 Norte 23 Norte 0 -- -- 74
2019-01-31 04:00:00 13.4 10 Norte 28 Norte 0 -- -- 78
2019-01-31 03:00:00 13.3 16 Norte 39 Noroeste 0 -- -- 77
2019-01-31 02:00:00 13.1 24 Norte 32 Norte 0 -- -- 79
2019-01-31 01:00:00 12.4 13 Norte 33 Norte 0 -- -- 92
2019-01-31 00:00:00 12.5 17 Noroeste 32 Norte 0 -- -- 95
2019-01-30 23:00:00 12.7 21 Norte 39 Norte 0 -- -- 94
2019-01-30 22:00:00 13.6 27 Norte 42 Norte 0 -- -- 84
2019-01-30 21:00:00 14.4 28 Norte 42 Norte 0 -- -- 78
2019-01-30 20:00:00 14.4 21 Norte 37 Norte 0 -- -- 78
2019-01-30 19:00:00 14.9 25 Norte 47 Norte 0 -- -- 70
2019-01-30 18:00:00 15.8 29 Norte 46 Noroeste 0 -- -- 66
2019-01-30 17:00:00 16.3 30 Noroeste 45 Noroeste 0 -- -- 66
2019-01-30 16:00:00 17.3 29 Norte 48 Norte 0 -- -- 66
2019-01-30 15:00:00 18.3 29 Norte 41 Norte 0 -- -- 59
2019-01-30 14:00:00 18.2 30 Norte 42 Norte 0 -- -- 60
2019-01-30 13:00:00 18.4 28 Norte 42 Norte 0 -- -- 65
2019-01-30 12:00:00 17.7 27 Norte 41 Norte 0 -- -- 65
2019-01-30 11:00:00 17.3 26 Norte 36 Norte 0 -- -- 70
2019-01-30 10:00:00 16 22 Norte 37 Norte 0 -- -- 73
2019-01-30 09:00:00 14 23 Norte 33 Noroeste 0 -- -- 88
2019-01-30 08:00:00 13.5 18 Norte 28 Norte 0 -- -- 87
2019-01-30 07:00:00 13.5 21 Norte 28 Norte 0 -- -- 87
2019-01-30 06:00:00 13.6 15 Norte 27 Norte 0 -- -- 83
2019-01-30 05:00:00 13.4 14 Norte 23 Norte 0 -- -- 91
2019-01-30 04:00:00 13.3 15 Noroeste 27 Norte 0 -- -- 97
2019-01-30 03:00:00 13.1 22 Norte 37 Norte 0 -- -- 97
2019-01-30 02:00:00 13.3 18 Norte 29 Noroeste 0 -- -- 95
2019-01-30 01:00:00 13.9 17 Norte 31 Norte 0 -- -- 90
2019-01-30 00:00:00 13.9 17 Norte 28 Norte 0 -- -- 89
2019-01-29 23:00:00 14.1 15 Norte 33 Norte 0 -- -- 86
2019-01-29 22:00:00 14.7 24 Norte 34 Norte 0 -- -- 85
2019-01-29 21:00:00 15.2 13 Norte 22 Norte 0 -- -- 80
2019-01-29 20:00:00 15.5 15 Norte 35 Nordeste 0 -- -- 79
2019-01-29 19:00:00 15.6 20 Norte 36 Norte 0 -- -- 73
2019-01-29 18:00:00 16.4 25 Norte 39 Norte 0 -- -- 68
2019-01-29 17:00:00 -- 24 Norte 40 Norte 0 -- -- --
2019-01-29 16:00:00 18.3 26 Norte 38 Noroeste 0 -- -- 63
2019-01-29 15:00:00 18.8 22 Norte 37 Norte 0 -- -- 64
2019-01-29 14:00:00 19.5 31 Norte 44 Noroeste 0 -- -- 62
2019-01-29 13:00:00 19.2 21 Norte 31 Norte 0 -- -- 60
2019-01-29 12:00:00 18.4 15 Norte 28 Norte 0 -- -- 63
2019-01-29 11:00:00 17.1 19 Nordeste 30 Norte 0 -- -- 67
2019-01-29 10:00:00 16.3 14 Norte 22 Norte 0 -- -- 72
2019-01-29 09:00:00 13.8 12 Norte 19 Norte 0 -- -- 87
2019-01-29 08:00:00 11.8 10 Norte 22 Noroeste 0 -- -- 90
2019-01-29 07:00:00 12.3 17 Noroeste 23 Noroeste 0 -- -- 91
2019-01-29 06:00:00 12.4 15 Norte 28 Noroeste 0 -- -- 90
2019-01-29 05:00:00 12.8 18 Norte 30 Norte 0 -- -- 90
2019-01-29 04:00:00 12.7 17 Norte 40 Noroeste 0 -- -- 89
2019-01-29 03:00:00 12.7 19 Noroeste 32 Noroeste 0 -- -- 84
2019-01-29 02:00:00 12.9 14 Norte 24 Norte 0 -- -- 77
2019-01-29 01:00:00 12.4 17 Noroeste 21 Noroeste 0 -- -- 86
2019-01-29 00:00:00 11.8 12 Norte 18 Norte 0 -- -- 86
2019-01-28 23:00:00 11.4 12 Norte 16 Noroeste 0 -- -- 85
2019-01-28 22:00:00 12.6 14 Noroeste 18 Noroeste 0 -- -- 82
2019-01-28 21:00:00 13.1 7 Noroeste 15 Noroeste 0 -- -- 78
2019-01-28 20:00:00 13.9 6 Noroeste 16 Nordeste 0 -- -- 74
2019-01-28 19:00:00 14.9 9 Norte 28 Norte 0 -- -- 71
2019-01-28 18:00:00 16.3 17 Norte 31 Nordeste 0 -- -- 67
2019-01-28 17:00:00 17.6 21 Norte 45 Norte 0 -- -- 62
2019-01-28 16:00:00 18.6 29 Norte 47 Norte 0 -- -- 60
2019-01-28 15:00:00 18.9 23 Nordeste 39 Norte 0 -- -- 57
2019-01-28 14:00:00 18.8 27 Norte 44 Noroeste 0 -- -- 58
2019-01-28 13:00:00 18 31 Norte 45 Norte 0 -- -- 59
2019-01-28 12:00:00 17.4 27 Norte 44 Norte 0 -- -- 62
2019-01-28 11:00:00 16.9 30 Norte 44 Norte 0 -- -- 64
2019-01-28 10:00:00 15.8 23 Norte 32 Norte 0 -- -- 69
2019-01-28 09:00:00 15 17 Norte 30 Norte 0 -- -- 68
2019-01-28 08:00:00 13.8 10 Norte 25 Norte 0 -- -- 77
2019-01-28 07:00:00 13.2 14 Norte 23 Norte 0 -- -- 83
2019-01-28 06:00:00 13.3 13 Norte 23 Norte 0 -- -- 85
2019-01-28 05:00:00 13.1 16 Norte 22 Norte 0 -- -- 85
2019-01-28 04:00:00 13.6 15 Norte 24 Norte 0 -- -- 84
2019-01-28 03:00:00 13.2 18 Noroeste 24 Noroeste 0 -- -- 84
2019-01-28 02:00:00 12.7 10 Norte 21 Norte 0 -- -- 88
2019-01-28 01:00:00 13.6 18 Norte 27 Norte 0 -- -- 88
2019-01-28 00:00:00 14.1 18 Norte 24 Noroeste 0 -- -- 90
2019-01-27 23:00:00 13.7 14 Norte 24 Norte 0 -- -- 87
2019-01-27 22:00:00 14.3 18 Noroeste 25 Noroeste 0 -- -- 86
2019-01-27 21:00:00 -- 14 Norte 22 Noroeste 0 -- -- --
2019-01-27 20:00:00 14.8 15 Norte 27 Norte 0 -- -- 83
2019-01-27 19:00:00 15.6 18 Norte 32 Norte 0 -- -- 80
2019-01-27 18:00:00 16.6 22 Norte 38 Noroeste 0 -- -- 75
2019-01-27 17:00:00 17.8 25 Noroeste 36 Noroeste 0 -- -- 68
2019-01-27 16:00:00 18.5 23 Norte 31 Noroeste 0 -- -- 64
2019-01-27 15:00:00 18.9 21 Noroeste 29 Norte 0 -- -- 64
2019-01-27 14:00:00 19.2 22 Noroeste 30 Noroeste 0 -- -- 60
2019-01-27 13:00:00 18.8 17 Noroeste 27 Noroeste 0 -- -- 65
2019-01-27 12:00:00 18.7 14 Norte 26 Noroeste 0 -- -- 66
2019-01-27 11:00:00 17.9 9 Noroeste 20 Norte 0 -- -- 69
2019-01-27 10:00:00 16.3 14 Norte 21 Noroeste 0 -- -- 75
2019-01-27 09:00:00 14.4 8 Noroeste 10 Norte 0 -- -- 87
2019-01-27 08:00:00 13.2 9 Noroeste 13 Noroeste 0 -- -- 90
2019-01-27 07:00:00 13.2 5 Noroeste 10 Noroeste 0 -- -- 84
2019-01-27 06:00:00 14.3 8 Noroeste 14 Noroeste 0 -- -- 85
2019-01-27 05:00:00 13.1 9 Noroeste 14 Noroeste 0 -- -- 92
2019-01-27 04:00:00 13.2 4 Oeste 6 Oeste 0 -- -- 90
2019-01-27 03:00:00 14.7 3 Noroeste 6 Norte 0 -- -- 89
2019-01-27 02:00:00 14.7 3 Noroeste 6 Este 0 -- -- 89
2019-01-27 01:00:00 14.5 0 Calma 6 Noroeste 0 -- -- 90
2019-01-27 00:00:00 14.1 3 Noroeste 9 Oeste 0 -- -- 90
2019-01-26 23:00:00 13.5 5 Noroeste 10 Norte 0 -- -- 87
2019-01-26 22:00:00 15.1 8 Norte 13 Noroeste 0 -- -- 85
2019-01-26 21:00:00 15 9 Noroeste 16 Noroeste 0 -- -- 86
2019-01-26 20:00:00 15.3 11 Norte 23 Noroeste 0 -- -- 80
2019-01-26 19:00:00 16.2 17 Norte 22 Noroeste 0 -- -- 78
2019-01-26 18:00:00 16.9 13 Norte 19 Noroeste 0 -- -- 71
2019-01-26 17:00:00 17.5 12 Noroeste 22 Noroeste 0 -- -- 68
2019-01-26 16:00:00 18.2 17 Noroeste 25 Noroeste 0 -- -- 64
2019-01-26 15:00:00 18.8 16 Noroeste 25 Noroeste 0 -- -- 60
2019-01-26 14:00:00 19.5 15 Noroeste 24 Noroeste 0 -- -- 57
2019-01-26 13:00:00 19.5 12 Norte 22 Noroeste 0 -- -- 57
2019-01-26 12:00:00 18.8 9 Norte 23 Noroeste 0 -- -- 56
2019-01-26 11:00:00 18.3 13 Norte 21 Norte 0 -- -- 59
2019-01-26 10:00:00 17.2 5 Nordeste 9 Nordeste 0 -- -- 65
2019-01-26 09:00:00 15.5 3 Oeste 9 Oeste 0 -- -- 75
2019-01-26 08:00:00 13.7 7 Oeste 17 Norte 0 -- -- 85
2019-01-26 07:00:00 14.5 8 Noroeste 12 Noroeste 0 -- -- 82
2019-01-26 06:00:00 14.6 0 Calma 10 Norte 0 -- -- 80
2019-01-26 05:00:00 14.4 6 Norte 9 Norte 0 -- -- 85
2019-01-26 04:00:00 14.4 5 Noroeste 9 Noroeste 0 -- -- 88
2019-01-26 03:00:00 14.3 2 Sur 5 Noroeste 0 -- -- 91
2019-01-26 02:00:00 13.9 3 Oeste 8 Oeste 0 -- -- 92
2019-01-26 01:00:00 13.9 6 Norte 12 Noroeste 0 -- -- 91
2019-01-26 00:00:00 14.6 12 Noroeste 15 Noroeste 0 -- -- 91
2019-01-25 23:00:00 14.7 8 Noroeste 15 Norte 0 -- -- 91
2019-01-25 22:00:00 15.1 12 Norte 16 Norte 0 -- -- 89
2019-01-25 21:00:00 15.3 7 Norte 12 Noroeste 0 -- -- 87
2019-01-25 20:00:00 15.2 9 Norte 16 Noroeste 0 -- -- 87
2019-01-25 19:00:00 15.3 13 Noroeste 21 Norte 0 -- -- 83
2019-01-25 18:00:00 16.6 15 Noroeste 22 Noroeste 0 -- -- 79
2019-01-25 17:00:00 17.4 16 Norte 26 Noroeste 0 -- -- 73
2019-01-25 16:00:00 18.8 19 Noroeste 27 Noroeste 0 -- -- 66
2019-01-25 15:00:00 19.5 15 Noroeste 27 Noroeste 0 -- -- 65
2019-01-25 14:00:00 19.3 16 Noroeste 28 Noroeste 0 -- -- 66
2019-01-25 13:00:00 18.5 17 Norte 23 Noroeste 0 -- -- 71
2019-01-25 12:00:00 17.5 13 Norte 27 Noroeste 0 -- -- 77
2019-01-25 11:00:00 16.9 15 Norte 23 Noroeste 0 -- -- 81
2019-01-25 10:00:00 15.2 11 Norte 15 Noroeste 0 -- -- 90
2019-01-25 09:00:00 14.4 10 Noroeste 16 Noroeste 0 -- -- 97
2019-01-25 08:00:00 12.3 7 Noroeste 12 Noroeste 0 -- -- 97
2019-01-25 07:00:00 13 8 Noroeste 24 Noroeste 0 -- -- 97
2019-01-25 06:00:00 13.2 16 Noroeste 22 Norte 0 -- -- 97
2019-01-25 05:00:00 12.8 4 Oeste 21 Norte 0 -- -- 97
2019-01-25 04:00:00 13.2 15 Norte 21 Norte 0 -- -- 97
2019-01-25 03:00:00 13.2 13 Noroeste 26 Noroeste 0 -- -- 97
2019-01-25 02:00:00 13.2 20 Noroeste 27 Noroeste 0 -- -- 97
2019-01-25 01:00:00 13.2 14 Noroeste 20 Noroeste 0 -- -- 97
2019-01-25 00:00:00 13.6 15 Noroeste 28 Noroeste 0 -- -- 97
2019-01-24 23:00:00 13.6 18 Norte 32 Noroeste 0 -- -- 97
2019-01-24 22:00:00 13.6 22 Norte 31 Norte 0 -- -- 96
2019-01-24 21:00:00 14 15 Noroeste 25 Norte 0.2 -- -- 96
2019-01-24 20:00:00 14.1 16 Norte 37 Noroeste 0.4 -- -- 95
2019-01-24 19:00:00 14.3 19 Noroeste 29 Norte 0.2 -- -- 94
2019-01-24 18:00:00 14.5 19 Noroeste 40 Norte 0 -- -- 87
2019-01-24 17:00:00 16.1 30 Norte 39 Norte 0 -- -- 76
2019-01-24 16:00:00 17.2 24 Noroeste 35 Noroeste 0 -- -- 69
2019-01-24 15:00:00 16.9 25 Noroeste 41 Noroeste 0 -- -- 70
2019-01-24 14:00:00 18.3 26 Norte 37 Norte 0 -- -- 59
2019-01-24 13:00:00 17.7 23 Norte 37 Noroeste 0 -- -- 59
2019-01-24 12:00:00 17.2 27 Norte 41 Norte 0 -- -- 58
2019-01-24 11:00:00 16.4 25 Norte 39 Norte 0 -- -- 69
2019-01-24 10:00:00 14.2 17 Norte 40 Norte 0 -- -- 85
2019-01-24 09:00:00 13.9 16 Norte 25 Noroeste 0 -- -- 79
2019-01-24 08:00:00 11.9 8 Norte 19 Norte 0 -- -- 85
2019-01-24 07:00:00 12.3 9 Norte 22 Norte 0 -- -- 78
2019-01-24 06:00:00 12.9 10 Norte 28 Norte 0 -- -- 79
2019-01-24 05:00:00 14.1 14 Norte 29 Norte 0 -- -- 69
2019-01-24 04:00:00 14.2 17 Norte 27 Norte 0 -- -- 76
2019-01-24 03:00:00 13.7 14 Noroeste 22 Norte 0 -- -- 89
2019-01-24 02:00:00 13.3 14 Noroeste 25 Noroeste 0 -- -- 92
2019-01-24 01:00:00 13.5 20 Norte 34 Norte 0 -- -- 89
2019-01-24 00:00:00 13.5 13 Noroeste 25 Norte 0 -- -- 85